Time;durP1;ratioP1;P1;durP2;ratioP2;P2;SDS_P1;SDS_P2;PMS_P1;PMS_P2;Temp;Humidity;BMP_temperature;BMP_pressure;BME280_temperature;BME280_humidity;BME280_pressure;Samples;Min_cycle;Max_cycle;Signal;HPM_P1;HPM_P2
2021/08/11 00:00:25;;;;;;;10.10;5.32;;;;;;;21.83;74.66;100349.63;5130523;27;20135;-62
2021/08/11 00:02:50;;;;;;;9.20;4.93;;;;;;;21.76;75.35;100353.38;5130373;28;20035;-62
2021/08/11 00:05:16;;;;;;;8.07;4.60;;;;;;;21.68;75.88;100348.09;5130475;28;20027;-63
2021/08/11 00:07:42;;;;;;;12.88;5.05;;;;;;;21.63;76.62;100356.91;5130336;27;20506;-62
2021/08/11 00:10:08;;;;;;;14.07;5.22;;;;;;;21.57;76.87;100351.44;5130757;28;20023;-62
2021/08/11 00:12:34;;;;;;;9.35;4.68;;;;;;;21.53;77.49;100348.25;5129215;28;20080;-62
2021/08/11 00:15:00;;;;;;;13.80;5.30;;;;;;;21.51;77.66;100352.25;5130487;28;20814;-62
2021/08/11 00:17:26;;;;;;;16.38;4.80;;;;;;;21.46;78.18;100350.13;5130165;28;20039;-62
2021/08/11 00:19:52;;;;;;;13.52;5.15;;;;;;;21.43;78.09;100346.94;5130294;28;20023;-61
2021/08/11 00:22:18;;;;;;;14.00;4.60;;;;;;;21.41;78.00;100351.78;5130404;28;20470;-61
2021/08/11 00:24:43;;;;;;;17.08;5.75;;;;;;;21.39;78.33;100357.44;5130298;27;20035;-61
2021/08/11 00:27:09;;;;;;;12.00;5.07;;;;;;;21.40;78.65;100352.81;5134084;27;20031;-63
2021/08/11 00:29:35;;;;;;;10.35;5.53;;;;;;;21.37;79.11;100348.59;5133094;27;20050;-63
2021/08/11 00:32:00;;;;;;;11.13;5.40;;;;;;;21.33;79.14;100347.34;5132426;27;20525;-64
2021/08/11 00:34:27;;;;;;;11.30;5.25;;;;;;;21.35;78.92;100344.41;5134270;27;20027;-62
2021/08/11 00:36:53;;;;;;;11.13;4.72;;;;;;;21.36;79.31;100355.13;5134376;27;20586;-63
2021/08/11 00:39:19;;;;;;;12.50;4.90;;;;;;;21.34;79.26;100351.72;5134172;27;20031;-63
2021/08/11 00:41:45;;;;;;;10.73;4.80;;;;;;;21.29;79.01;100342.47;5134149;27;20015;-62
2021/08/11 00:44:11;;;;;;;13.23;4.85;;;;;;;21.26;79.24;100335.56;5134362;27;20102;-63
2021/08/11 00:46:41;;;;;;;8.77;4.53;;;;;;;21.28;78.95;100351.72;5133991;27;20172;-63
2021/08/11 00:49:11;;;;;;;8.35;4.43;;;;;;;21.18;79.25;100334.88;5134228;27;20041;-63
2021/08/11 00:51:37;;;;;;;9.55;4.30;;;;;;;21.24;79.09;100347.69;5132298;27;20445;-63
2021/08/11 00:54:05;;;;;;;11.75;4.30;;;;;;;21.22;79.09;100360.72;5134076;27;20106;-63
2021/08/11 00:56:31;;;;;;;9.35;3.80;;;;;;;21.12;79.62;100338.41;5133777;27;20423;-63
2021/08/11 00:58:58;;;;;;;11.85;4.65;;;;;;;21.16;79.63;100350.59;5133561;27;20026;-63
2021/08/11 01:01:25;;;;;;;9.18;4.70;;;;;;;21.16;79.75;100353.31;5133834;27;20019;-63
2021/08/11 01:03:54;;;;;;;9.07;4.80;;;;;;;21.14;79.71;100353.53;5133662;27;20085;-62
2021/08/11 01:06:19;;;;;;;10.57;4.80;;;;;;;21.07;79.23;100343.63;5133701;27;20047;-63
2021/08/11 01:08:45;;;;;;;12.07;4.47;;;;;;;21.09;79.03;100347.00;5133456;27;20069;-63
2021/08/11 01:11:11;;;;;;;10.60;5.03;;;;;;;21.04;79.04;100347.59;5132568;27;20027;-63
2021/08/11 01:13:38;;;;;;;13.38;5.10;;;;;;;21.01;79.02;100353.44;5133122;27;20019;-63
2021/08/11 01:16:03;;;;;;;11.93;4.60;;;;;;;20.97;79.09;100348.59;5133695;27;20739;-62
2021/08/11 01:18:29;;;;;;;14.13;5.40;;;;;;;20.88;79.17;100350.63;5133337;27;20035;-63
2021/08/11 01:21:02;;;;;;;9.10;4.93;;;;;;;20.88;79.32;100349.75;5133426;27;20080;-62
2021/08/11 01:23:37;;;;;;;7.65;4.95;;;;;;;20.83;79.59;100352.25;5133375;27;20019;-63
2021/08/11 01:26:14;;;;;;;9.60;4.40;;;;;;;20.76;79.49;100351.38;5133158;27;20466;-63
2021/08/11 01:28:59;;;;;;;10.30;4.82;;;;;;;20.76;79.54;100356.81;5132113;27;20355;-63
2021/08/11 01:31:45;;;;;;;9.30;4.93;;;;;;;20.72;80.04;100360.97;5133125;27;20035;-63
2021/08/11 01:34:26;;;;;;;9.70;4.60;;;;;;;20.61;80.41;100351.47;5133339;27;20053;-62
2021/08/11 01:36:53;;;;;;;10.00;4.93;;;;;;;20.66;80.89;100359.88;5131036;27;20422;-63
2021/08/11 01:39:31;;;;;;;10.50;4.72;;;;;;;20.63;81.05;100357.56;5132877;27;20094;-62
2021/08/11 01:42:01;;;;;;;9.70;4.47;;;;;;;20.60;81.00;100362.56;5133125;27;20046;-62
2021/08/11 01:44:35;;;;;;;10.95;4.72;;;;;;;20.57;81.31;100360.25;5132940;27;20147;-62
2021/08/11 01:47:03;;;;;;;12.35;4.88;;;;;;;20.49;81.27;100354.94;5132530;27;20035;-62
2021/08/11 01:49:33;;;;;;;9.20;5.35;;;;;;;20.47;81.20;100357.03;5132662;27;20387;-62
2021/08/11 01:52:00;;;;;;;9.68;4.57;;;;;;;20.46;81.63;100356.16;5132722;27;20023;-63
2021/08/11 01:54:27;;;;;;;8.07;4.72;;;;;;;20.46;81.77;100360.78;5132636;27;20062;-63
2021/08/11 01:56:55;;;;;;;10.00;5.00;;;;;;;20.43;82.27;100358.44;5132654;27;20030;-62
2021/08/11 01:59:21;;;;;;;8.60;5.00;;;;;;;20.36;82.30;100350.22;5132330;27;20497;-62
2021/08/11 02:01:48;;;;;;;7.57;4.63;;;;;;;20.34;82.47;100340.56;5132335;27;20023;-62
2021/08/11 02:04:15;;;;;;;9.32;5.07;;;;;;;20.41;82.54;100357.81;5132836;27;20102;-62
2021/08/11 02:06:43;;;;;;;8.38;5.05;;;;;;;20.40;82.95;100345.19;5132366;27;20114;-62
2021/08/11 02:09:11;;;;;;;8.40;4.60;;;;;;;20.39;82.96;100348.97;5132461;27;20072;-62
2021/08/11 02:11:40;;;;;;;9.73;4.63;;;;;;;20.38;82.68;100347.28;5132104;27;20059;-63
2021/08/11 02:14:08;;;;;;;5.38;3.97;;;;;;;20.34;82.34;100346.00;5132202;27;20041;-62
2021/08/11 02:16:34;;;;;;;15.90;5.47;;;;;;;20.35;81.95;100356.72;5132280;27;20026;-62
2021/08/11 02:18:59;;;;;;;9.48;5.07;;;;;;;20.34;81.74;100351.47;5132205;27;20513;-62
2021/08/11 02:21:25;;;;;;;9.45;5.35;;;;;;;20.30;81.43;100350.16;5132125;27;20032;-62
2021/08/11 02:23:50;;;;;;;9.43;4.55;;;;;;;20.26;81.44;100352.44;5131909;27;20023;-62
2021/08/11 02:26:20;;;;;;;8.68;4.40;;;;;;;20.25;80.86;100358.09;5132304;27;20050;-62
2021/08/11 02:29:15;;;;;;;5.93;3.97;;;;;;;20.19;80.77;100355.09;5132365;27;20069;-63
2021/08/11 02:31:47;;;;;;;13.65;5.05;;;;;;;20.16;80.96;100355.47;5107127;27;20491;-61
2021/08/11 02:34:32;;;;;;;7.53;4.55;;;;;;;20.12;81.14;100364.25;5132110;27;20073;-61
2021/08/11 02:37:01;;;;;;;;;;;;;;;20.10;81.71;100360.84;5132068;27;20478;-62
2021/08/11 02:39:39;;;;;;;13.25;4.78;;;;;;;20.08;82.05;100363.75;5131721;27;20286;-61
2021/08/11 02:42:11;;;;;;;9.85;5.10;;;;;;;20.08;82.23;100366.47;5132001;27;20018;-62
2021/08/11 02:44:43;;;;;;;7.85;4.72;;;;;;;20.06;82.85;100371.25;5131585;27;20031;-61
2021/08/11 02:47:09;;;;;;;8.82;4.38;;;;;;;20.04;83.01;100372.50;5131382;27;20038;-62
2021/08/11 02:49:35;;;;;;;9.80;4.30;;;;;;;19.97;82.28;100367.00;5130927;27;20470;-62
2021/08/11 02:52:01;;;;;;;7.18;4.82;;;;;;;19.94;82.00;100364.69;5131413;27;20382;-63
2021/08/11 02:54:28;;;;;;;10.85;4.03;;;;;;;19.92;81.97;100374.91;5131433;27;20027;-63
2021/08/11 02:56:55;;;;;;;7.75;4.70;;;;;;;19.94;82.05;100377.44;5131237;27;20034;-63
2021/08/11 02:59:27;;;;;;;10.20;4.60;;;;;;;19.93;82.40;100387.47;5131299;27;20102;-62
2021/08/11 03:01:54;;;;;;;10.90;4.53;;;;;;;19.88;83.17;100380.91;5128334;27;20043;-62
2021/08/11 03:04:19;;;;;;;8.13;4.03;;;;;;;19.88;83.13;100389.94;5129849;27;20030;-62
2021/08/11 03:06:45;;;;;;;9.40;4.93;;;;;;;19.79;83.39;100382.06;5128997;27;20119;-62
2021/08/11 03:09:11;;;;;;;9.73;4.35;;;;;;;19.82;83.67;100400.75;5130398;27;20549;-62
2021/08/11 03:11:37;;;;;;;11.05;4.95;;;;;;;19.81;83.25;100405.38;5130717;27;20101;-62
2021/08/11 03:14:06;;;;;;;8.32;5.20;;;;;;;19.80;83.64;100402.84;5130781;27;20015;-62
2021/08/11 03:16:32;;;;;;;8.00;5.13;;;;;;;19.77;83.64;100400.50;5126322;27;20481;-62
2021/08/11 03:18:57;;;;;;;8.85;5.35;;;;;;;19.74;83.24;100411.75;5130558;27;20061;-62
2021/08/11 03:21:23;;;;;;;11.43;4.78;;;;;;;19.69;83.25;100406.03;5130504;27;20015;-62
2021/08/11 03:23:48;;;;;;;11.88;5.65;;;;;;;19.65;83.45;100411.03;5130088;27;20026;-62
2021/08/11 03:26:14;;;;;;;10.10;5.63;;;;;;;19.59;83.50;100410.94;5130890;27;20420;-63
2021/08/11 03:28:40;;;;;;;10.45;5.43;;;;;;;19.56;83.94;100414.03;5131439;27;20027;-62
2021/08/11 03:31:05;;;;;;;10.27;5.00;;;;;;;19.61;84.09;100430.66;5129374;27;20487;-62
2021/08/11 03:33:31;;;;;;;9.68;5.40;;;;;;;19.59;84.33;100433.56;5129662;27;20405;-62
2021/08/11 03:35:56;;;;;;;8.55;4.95;;;;;;;19.59;84.19;100427.25;5131011;27;20062;-62
2021/08/11 03:38:22;;;;;;;11.77;5.25;;;;;;;19.56;84.05;100431.22;5131074;27;20061;-62
2021/08/11 03:40:47;;;;;;;12.30;4.90;;;;;;;19.58;83.85;100436.47;5131218;27;20530;-63
2021/08/11 03:43:13;;;;;;;11.98;5.53;;;;;;;19.53;83.96;100426.16;5130881;27;20023;-61
2021/08/11 03:45:38;;;;;;;12.77;5.57;;;;;;;19.54;83.51;100430.53;5129523;27;20087;-62
2021/08/11 03:48:04;;;;;;;12.55;5.10;;;;;;;19.52;83.07;100431.78;5130905;27;20027;-62
2021/08/11 03:50:30;;;;;;;10.02;5.60;;;;;;;19.53;83.06;100436.16;5130779;27;20027;-63
2021/08/11 03:52:56;;;;;;;10.40;5.38;;;;;;;19.54;82.04;100441.44;5130714;27;20031;-63
2021/08/11 03:55:21;;;;;;;11.80;5.95;;;;;;;19.51;81.54;100446.41;5130811;28;20375;-62
2021/08/11 03:57:47;;;;;;;11.85;5.07;;;;;;;19.56;81.35;100443.97;5131137;27;20026;-63
2021/08/11 04:00:13;;;;;;;10.65;5.50;;;;;;;19.55;81.58;100440.41;5130849;27;20087;-62
2021/08/11 04:02:39;;;;;;;8.57;5.43;;;;;;;19.54;81.24;100429.72;5133227;27;20022;-62
2021/08/11 04:05:08;;;;;;;10.18;5.40;;;;;;;19.55;81.05;100434.97;5133324;27;20022;-63
2021/08/11 04:07:37;;;;;;;8.88;5.80;;;;;;;19.61;80.88;100447.78;5134433;27;20088;-62
2021/08/11 04:10:08;;;;;;;16.50;5.70;;;;;;;19.62;81.36;100435.03;5134526;27;20042;-62
2021/08/11 04:12:33;;;;;;;12.77;5.93;;;;;;;19.63;81.47;100423.97;5133696;27;20020;-62
2021/08/11 04:14:59;;;;;;;10.50;6.70;;;;;;;19.63;81.13;100420.41;5134255;27;20042;-63
2021/08/11 04:17:25;;;;;;;15.65;5.22;;;;;;;19.72;81.51;100433.72;5131674;27;20027;-62
2021/08/11 04:19:50;;;;;;;9.60;5.50;;;;;;;19.80;81.36;100443.66;5134372;27;20019;-62
2021/08/11 04:22:16;;;;;;;12.00;5.78;;;;;;;19.76;79.50;100424.13;5134207;27;20015;-62
2021/08/11 04:24:41;;;;;;;13.70;5.70;;;;;;;19.94;78.66;100432.75;5133708;27;20035;-63
2021/08/11 04:27:07;;;;;;;10.57;5.72;;;;;;;20.08;78.53;100444.59;5132392;27;20023;-63
2021/08/11 04:29:32;;;;;;;13.88;5.72;;;;;;;20.19;78.83;100428.63;5133798;27;20027;-62
2021/08/11 04:31:57;;;;;;;10.05;5.38;;;;;;;20.28;78.03;100426.63;5133707;27;20038;-62
2021/08/11 04:34:23;;;;;;;7.57;4.88;;;;;;;20.47;77.25;100442.31;5132815;27;20390;-62
2021/08/11 04:36:49;;;;;;;10.10;5.13;;;;;;;20.60;75.76;100447.06;5132240;27;20035;-63
2021/08/11 04:39:14;;;;;;;13.93;4.85;;;;;;;20.73;75.87;100455.38;5130945;27;20501;-62
2021/08/11 04:41:39;;;;;;;13.65;5.25;;;;;;;20.85;74.25;100456.50;5134207;27;20062;-62
2021/08/11 04:44:10;;;;;;;8.90;4.65;;;;;;;20.88;72.54;100432.41;5132863;27;20023;-63
2021/08/11 04:46:35;;;;;;;9.75;5.20;;;;;;;21.10;72.14;100450.44;5134908;27;20102;-62
2021/08/11 04:49:01;;;;;;;8.80;5.25;;;;;;;21.25;71.30;100462.06;5134794;27;20805;-63
2021/08/11 04:51:26;;;;;;;9.23;5.00;;;;;;;21.37;71.46;100449.56;5134578;27;20068;-62
2021/08/11 04:53:52;;;;;;;7.20;5.05;;;;;;;21.57;71.99;100446.97;5125591;27;20031;-62
2021/08/11 04:56:19;;;;;;;10.57;4.72;;;;;;;21.74;71.26;100446.41;5133344;27;20047;-62
2021/08/11 04:58:44;;;;;;;8.90;4.47;;;;;;;21.87;69.91;100440.19;5132846;27;20072;-63
2021/08/11 05:01:09;;;;;;;9.73;5.00;;;;;;;22.12;68.06;100455.81;5133120;27;20019;-63
2021/08/11 05:03:36;;;;;;;11.50;5.18;;;;;;;22.38;66.55;100458.63;5132742;27;20023;-63
2021/08/11 05:06:03;;;;;;;7.28;4.57;;;;;;;22.69;65.20;100459.97;5132754;27;20028;-63
2021/08/11 05:08:28;;;;;;;9.25;5.07;;;;;;;22.98;64.22;100454.06;5132793;27;20015;-63
2021/08/11 05:10:54;;;;;;;10.40;5.00;;;;;;;23.26;63.45;100447.34;5132765;27;20389;-63
2021/08/11 05:13:19;;;;;;;14.27;4.55;;;;;;;23.45;62.76;100448.34;5132788;27;20475;-63
2021/08/11 05:15:44;;;;;;;13.30;5.05;;;;;;;23.62;61.98;100447.66;5132653;27;20019;-63
2021/08/11 05:18:11;;;;;;;10.73;4.65;;;;;;;23.66;60.44;100431.63;5132645;27;20019;-64
2021/08/11 05:20:37;;;;;;;7.35;4.10;;;;;;;23.93;60.50;100457.88;5131030;27;20098;-63
2021/08/11 05:23:03;;;;;;;13.43;4.60;;;;;;;24.02;59.53;100448.41;5132852;27;20027;-63
2021/08/11 05:25:29;;;;;;;11.85;4.10;;;;;;;24.05;58.80;100443.31;5132740;27;20046;-62
2021/08/11 05:27:55;;;;;;;12.95;4.40;;;;;;;24.15;59.11;100453.81;5132185;27;20046;-63
2021/08/11 05:30:20;;;;;;;16.67;5.10;;;;;;;24.22;58.53;100449.13;5131432;27;20043;-63
2021/08/11 05:32:46;;;;;;;9.90;4.25;;;;;;;24.37;58.40;100444.16;5130864;27;20035;-63
2021/08/11 05:35:11;;;;;;;16.20;4.78;;;;;;;24.52;58.13;100455.69;5132441;27;20023;-63
2021/08/11 05:37:38;;;;;;;15.20;4.70;;;;;;;24.69;57.83;100450.53;5132392;27;20114;-63
2021/08/11 05:40:04;;;;;;;11.77;4.90;;;;;;;24.85;57.25;100453.56;5132680;27;20041;-64
2021/08/11 05:42:30;;;;;;;8.77;5.13;;;;;;;25.02;56.53;100442.88;5132102;27;20554;-63
2021/08/11 05:44:55;;;;;;;11.68;5.30;;;;;;;25.21;56.66;100448.16;5131997;27;20025;-63
2021/08/11 05:47:20;;;;;;;15.50;5.32;;;;;;;25.40;55.91;100452.66;5132452;27;20095;-63
2021/08/11 05:49:46;;;;;;;17.75;5.43;;;;;;;25.61;55.16;100440.38;5132735;27;20103;-63
2021/08/11 05:52:11;;;;;;;16.08;5.75;;;;;;;25.81;54.33;100439.06;5132006;27;20038;-62
2021/08/11 05:54:38;;;;;;;14.52;4.85;;;;;;;26.03;53.16;100437.56;5132956;27;20019;-62
2021/08/11 05:57:04;;;;;;;8.38;4.82;;;;;;;26.25;52.63;100437.88;5132863;27;20539;-62
2021/08/11 05:59:30;;;;;;;11.55;5.00;;;;;;;26.45;52.44;100441.19;5128094;27;20031;-62
2021/08/11 06:01:56;;;;;;;10.40;5.30;;;;;;;26.63;51.92;100441.13;5131184;27;20087;-62
2021/08/11 06:04:23;;;;;;;7.32;4.40;;;;;;;26.84;50.97;100434.22;5131727;27;20065;-62
2021/08/11 06:06:51;;;;;;;7.70;4.03;;;;;;;27.04;50.44;100438.34;5132958;27;20031;-63
2021/08/11 06:09:16;;;;;;;5.10;4.03;;;;;;;27.25;49.60;100428.66;5132882;27;20054;-62
2021/08/11 06:11:42;;;;;;;10.70;4.65;;;;;;;27.44;49.00;100422.78;5132325;27;20054;-62
2021/08/11 06:14:07;;;;;;;9.43;3.67;;;;;;;27.63;48.71;100424.31;5132768;27;20050;-63
2021/08/11 06:16:32;;;;;;;8.10;3.97;;;;;;;27.86;48.55;100416.00;5131612;27;20046;-62
2021/08/11 06:18:58;;;;;;;5.57;4.10;;;;;;;28.05;47.78;100409.22;5132008;27;20023;-63
2021/08/11 06:21:25;;;;;;;4.97;3.67;;;;;;;28.18;47.44;100395.13;5132420;27;20015;-63
2021/08/11 06:23:51;;;;;;;5.80;4.10;;;;;;;28.40;47.33;100400.78;5132028;27;20437;-63
2021/08/11 06:26:17;;;;;;;8.38;3.92;;;;;;;28.59;46.38;100406.97;5132290;27;20101;-63
2021/08/11 06:28:43;;;;;;;9.13;3.05;;;;;;;28.79;46.18;100415.59;5132332;27;20019;-62
2021/08/11 06:31:08;;;;;;;7.70;3.92;;;;;;;28.95;45.92;100407.28;5130758;27;20050;-63
2021/08/11 06:33:34;;;;;;;10.73;4.25;;;;;;;29.23;44.66;100414.66;5132053;27;20042;-63
2021/08/11 06:35:59;;;;;;;5.65;3.55;;;;;;;29.40;43.53;100421.00;5130684;27;20022;-63
2021/08/11 06:38:25;;;;;;;6.88;3.63;;;;;;;29.53;43.50;100401.28;5130789;27;20444;-63
2021/08/11 06:40:50;;;;;;;7.40;3.55;;;;;;;29.69;43.08;100403.19;5130772;27;20027;-63
2021/08/11 06:43:17;;;;;;;4.93;3.50;;;;;;;29.87;42.39;100402.84;5130180;27;20092;-63
2021/08/11 06:45:43;;;;;;;6.65;3.67;;;;;;;29.99;42.00;100404.38;5130448;27;20023;-63
2021/08/11 06:48:08;;;;;;;6.80;3.53;;;;;;;30.03;41.68;100396.41;5129675;27;20539;-63
2021/08/11 06:50:34;;;;;;;6.30;2.90;;;;;;;30.08;41.72;100390.94;5130985;27;20019;-63
2021/08/11 06:52:59;;;;;;;9.15;3.70;;;;;;;30.12;41.67;100397.63;5129452;27;20492;-63
2021/08/11 06:55:25;;;;;;;5.03;3.58;;;;;;;30.15;41.90;100392.38;5128634;27;20071;-61
2021/08/11 06:57:50;;;;;;;6.97;3.60;;;;;;;30.24;41.33;100396.41;5129511;27;20030;-63
2021/08/11 07:00:16;;;;;;;6.65;3.30;;;;;;;30.36;41.09;100390.69;5129487;27;20038;-62
2021/08/11 07:02:42;;;;;;;8.02;3.80;;;;;;;30.48;40.61;100388.63;5128935;27;20478;-62
2021/08/11 07:05:08;;;;;;;4.32;3.35;;;;;;;30.66;40.41;100387.38;5128827;27;20079;-63
2021/08/11 07:07:33;;;;;;;5.32;3.70;;;;;;;30.89;40.12;100389.81;5130655;27;20075;-62
2021/08/11 07:10:00;;;;;;;3.45;3.00;;;;;;;31.12;39.72;100390.28;5130866;27;20019;-62
2021/08/11 07:12:25;;;;;;;5.93;3.50;;;;;;;31.33;38.96;100396.81;5131220;27;20498;-63
2021/08/11 07:14:52;;;;;;;8.05;3.40;;;;;;;31.47;38.49;100396.06;5131156;27;20165;-63
2021/08/11 07:17:18;;;;;;;5.95;3.03;;;;;;;31.53;38.33;100386.66;5131404;27;20102;-63
2021/08/11 07:19:43;;;;;;;6.45;3.50;;;;;;;31.64;38.08;100396.72;5130924;27;20059;-63
2021/08/11 07:22:09;;;;;;;6.63;3.25;;;;;;;31.72;38.27;100392.59;5130839;27;20023;-63
2021/08/11 07:24:35;;;;;;;4.50;3.08;;;;;;;31.79;38.24;100394.00;5129489;27;20050;-63
2021/08/11 07:27:01;;;;;;;7.90;2.97;;;;;;;31.89;38.17;100388.50;5130644;27;20023;-64
2021/08/11 07:29:27;;;;;;;6.82;3.85;;;;;;;32.04;37.75;100387.72;5131516;27;20463;-64
2021/08/11 07:31:52;;;;;;;3.88;2.80;;;;;;;32.17;37.79;100389.97;5130579;27;20027;-64
2021/08/11 07:34:18;;;;;;;5.78;3.50;;;;;;;32.27;37.19;100390.84;5130876;27;20075;-63
2021/08/11 07:36:44;;;;;;;6.22;3.45;;;;;;;32.35;36.88;100387.56;5130084;27;20027;-64
2021/08/11 07:39:09;;;;;;;3.97;3.20;;;;;;;32.50;36.93;100395.91;5130510;27;20169;-63
2021/08/11 07:41:35;;;;;;;6.43;2.90;;;;;;;32.67;36.81;100400.38;5130989;27;20019;-64
2021/08/11 07:44:00;;;;;;;6.32;3.20;;;;;;;32.86;36.27;100409.84;5130516;27;20470;-65
2021/08/11 07:46:26;;;;;;;5.28;2.90;;;;;;;32.97;35.69;100387.34;5130944;27;20055;-65
2021/08/11 07:48:52;;;;;;;4.97;2.80;;;;;;;33.15;35.77;100397.88;5130866;27;20373;-64
2021/08/11 07:51:17;;;;;;;8.20;3.22;;;;;;;33.30;35.62;100403.41;5131184;27;20043;-65
2021/08/11 07:53:43;;;;;;;6.93;3.53;;;;;;;33.40;35.00;100395.06;5130873;27;20055;-65
2021/08/11 07:56:09;;;;;;;3.38;2.70;;;;;;;33.59;34.80;100400.88;5130776;27;20042;-64
2021/08/11 07:58:34;;;;;;;5.75;2.97;;;;;;;33.72;33.95;100389.94;5130652;27;20049;-64
2021/08/11 08:01:00;;;;;;;5.05;3.03;;;;;;;33.79;34.09;100398.81;5130432;27;20035;-64
2021/08/11 08:03:25;;;;;;;3.85;2.70;;;;;;;33.89;33.82;100392.44;5130473;27;20471;-64
2021/08/11 08:05:51;;;;;;;5.00;3.67;;;;;;;34.00;33.42;100396.81;5130668;27;20030;-63
2021/08/11 08:08:17;;;;;;;4.10;3.05;;;;;;;34.04;33.67;100392.31;5130364;27;20510;-63
2021/08/11 08:10:42;;;;;;;4.80;2.72;;;;;;;34.12;33.83;100386.19;5130340;27;20023;-63
2021/08/11 08:13:08;;;;;;;7.25;3.08;;;;;;;34.19;33.60;100379.19;5130363;27;20109;-63
2021/08/11 08:15:33;;;;;;;6.43;3.00;;;;;;;34.30;33.33;100383.53;5130398;27;20015;-63
2021/08/11 08:17:59;;;;;;;6.43;3.28;;;;;;;34.45;33.52;100391.00;5128906;28;20027;-63
2021/08/11 08:20:24;;;;;;;7.22;3.08;;;;;;;34.55;33.41;100393.72;5128937;28;20027;-63
2021/08/11 08:22:50;;;;;;;6.60;3.30;;;;;;;34.60;33.42;100388.91;5130248;27;20019;-63
2021/08/11 08:25:21;;;;;;;4.75;3.10;;;;;;;34.75;33.11;100392.72;5130377;27;20102;-63
2021/08/11 08:27:51;;;;;;;4.63;2.70;;;;;;;34.83;33.06;100400.47;5130256;27;20038;-64
2021/08/11 08:30:17;;;;;;;5.18;2.92;;;;;;;34.90;33.24;100399.03;5130487;27;20039;-64
2021/08/11 08:32:43;;;;;;;7.43;3.13;;;;;;;34.92;32.77;100393.16;5130133;27;20045;-64
2021/08/11 08:35:10;;;;;;;5.00;3.38;;;;;;;34.98;32.59;100389.22;5129931;27;20377;-63
2021/08/11 08:37:37;;;;;;;5.25;3.05;;;;;;;35.03;32.47;100397.50;5128768;27;20035;-63
2021/08/11 08:40:13;;;;;;;4.30;2.80;;;;;;;35.06;32.82;100392.19;5130331;27;20031;-63
2021/08/11 08:42:43;;;;;;;9.88;3.80;;;;;;;35.10;32.93;100396.06;5130378;27;20094;-65
2021/08/11 08:45:12;;;;;;;5.50;3.63;;;;;;;35.11;33.19;100396.91;5130083;27;20067;-63
2021/08/11 08:47:39;;;;;;;5.75;3.28;;;;;;;35.10;34.05;100400.81;5131484;27;20386;-64
2021/08/11 08:50:07;;;;;;;6.18;2.95;;;;;;;35.12;34.94;100402.19;5133565;27;20027;-64
2021/08/11 08:52:34;;;;;;;6.25;3.58;;;;;;;35.11;34.86;100403.31;5133954;27;20106;-64
2021/08/11 08:55:00;;;;;;;5.03;3.38;;;;;;;35.12;34.82;100396.59;5133981;27;20019;-65
2021/08/11 08:57:26;;;;;;;5.20;3.15;;;;;;;35.16;35.24;100399.63;5133888;27;20023;-64
2021/08/11 08:59:52;;;;;;;6.55;4.15;;;;;;;35.24;35.13;100397.03;5134159;27;20397;-65
2021/08/11 09:02:18;;;;;;;9.27;4.05;;;;;;;35.11;35.90;100406.09;5134607;27;20019;-65
2021/08/11 09:04:43;;;;;;;4.80;3.50;;;;;;;35.07;35.77;100398.63;5133853;27;20477;-64
2021/08/11 09:07:13;;;;;;;6.70;3.75;;;;;;;35.01;36.16;100400.59;5132238;27;20080;-64
2021/08/11 09:09:39;;;;;;;4.35;3.47;;;;;;;34.97;36.16;100399.53;5133566;27;20027;-64
2021/08/11 09:12:16;;;;;;;9.45;3.85;;;;;;;34.93;35.88;100392.88;5133528;27;20382;-64
2021/08/11 09:14:50;;;;;;;4.72;3.58;;;;;;;34.94;36.47;100394.53;5133520;27;20435;-64
2021/08/11 09:17:38;;;;;;;3.53;3.22;;;;;;;34.93;36.39;100401.25;5133526;27;20039;-63
2021/08/11 09:20:06;;;;;;;7.85;3.58;;;;;;;34.89;36.28;100402.97;5133338;27;20474;-64
2021/08/11 09:22:52;;;;;;;6.53;3.85;;;;;;;34.87;37.07;100399.63;5133355;27;20023;-64
2021/08/11 09:25:19;;;;;;;7.28;3.60;;;;;;;34.85;37.07;100396.28;5133216;27;20016;-64
2021/08/11 09:27:46;;;;;;;6.25;3.65;;;;;;;34.84;37.25;100397.41;5133458;27;20046;-63
2021/08/11 09:30:21;;;;;;;5.65;3.33;;;;;;;34.83;37.12;100394.88;5133249;27;20023;-64
2021/08/11 09:32:58;;;;;;;6.35;3.35;;;;;;;34.76;37.13;100386.88;5132800;27;20079;-63
2021/08/11 09:35:32;;;;;;;5.25;3.50;;;;;;;34.76;36.89;100394.38;5133298;27;20034;-64
2021/08/11 09:38:07;;;;;;;5.10;3.22;;;;;;;34.72;36.69;100399.69;5132803;27;20371;-64
2021/08/11 09:40:36;;;;;;;8.80;3.40;;;;;;;34.69;36.94;100400.31;5133035;27;20080;-65
2021/08/11 09:43:07;;;;;;;7.05;3.65;;;;;;;34.62;37.02;100391.41;5132806;27;20033;-65
2021/08/11 09:45:50;;;;;;;3.85;3.15;;;;;;;34.57;37.17;100388.69;5132977;27;20117;-64
2021/08/11 09:48:18;;;;;;;11.07;3.78;;;;;;;34.49;36.71;100392.06;5132750;27;20232;-65
2021/08/11 09:50:46;;;;;;;7.13;3.42;;;;;;;34.50;36.86;100391.78;5132670;27;20059;-64
2021/08/11 09:53:14;;;;;;;4.13;3.13;;;;;;;34.48;37.00;100387.63;5133359;27;20019;-65
2021/08/11 09:56:14;;;;;;;5.93;3.30;;;;;;;34.45;37.54;100393.78;5133084;27;20023;-64
2021/08/11 09:58:46;;;;;;;3.72;3.00;;;;;;;34.44;37.09;100397.69;5131619;27;20027;-64
2021/08/11 10:01:12;;;;;;;7.03;3.40;;;;;;;34.45;36.71;100399.34;5131302;27;20023;-64
2021/08/11 10:04:00;;;;;;;4.80;2.97;;;;;;;34.43;36.79;100394.06;5132351;27;20031;-64
2021/08/11 10:06:35;;;;;;;3.63;3.20;;;;;;;34.40;36.92;100393.84;5132835;27;20027;-64
2021/08/11 10:09:12;;;;;;;4.97;2.88;;;;;;;34.43;36.62;100391.28;5132353;27;20027;-64
2021/08/11 10:11:40;;;;;;;5.40;3.10;;;;;;;34.46;36.67;100398.22;5132167;27;20027;-64
2021/08/11 10:14:11;;;;;;;3.72;2.97;;;;;;;34.46;36.37;100395.44;5132265;27;20023;-65
2021/08/11 10:16:37;;;;;;;9.02;3.10;;;;;;;34.43;36.47;100385.72;5132215;27;20023;-65
2021/08/11 10:19:05;;;;;;;6.95;3.10;;;;;;;34.47;36.73;100394.34;5132227;27;20102;-63
2021/08/11 10:21:44;;;;;;;6.13;2.60;;;;;;;34.48;36.03;100385.69;5132076;27;20076;-64
2021/08/11 10:24:09;;;;;;;5.30;3.33;;;;;;;34.57;35.75;100388.69;5132049;27;20101;-64
2021/08/11 10:26:35;;;;;;;6.55;3.45;;;;;;;34.53;36.09;100382.84;5132058;27;20110;-64
2021/08/11 10:29:01;;;;;;;6.05;3.30;;;;;;;34.43;36.29;100376.53;5132125;27;20475;-64
2021/08/11 10:31:26;;;;;;;4.07;2.88;;;;;;;34.44;35.94;100379.00;5132315;27;20402;-64
2021/08/11 10:33:53;;;;;;;4.32;3.35;;;;;;;34.47;35.81;100388.78;5131721;27;20087;-65
2021/08/11 10:36:19;;;;;;;4.95;2.67;;;;;;;34.41;35.73;100384.34;5131736;27;20018;-65
2021/08/11 10:38:46;;;;;;;6.82;3.63;;;;;;;34.35;35.60;100377.16;5131953;27;20115;-64
2021/08/11 10:41:15;;;;;;;3.17;2.80;;;;;;;34.26;35.32;100376.06;5131886;27;20112;-65
2021/08/11 10:43:43;;;;;;;3.47;2.95;;;;;;;34.21;35.88;100381.66;5131985;27;20549;-65
2021/08/11 10:46:14;;;;;;;3.40;3.10;;;;;;;34.15;36.00;100382.81;5131497;27;20407;-64
2021/08/11 10:48:41;;;;;;;5.57;3.03;;;;;;;34.08;36.19;100373.94;5131475;27;20022;-64
2021/08/11 10:51:06;;;;;;;5.40;3.17;;;;;;;34.06;36.55;100371.47;5131403;27;20058;-64
2021/08/11 10:53:32;;;;;;;5.97;3.30;;;;;;;34.09;36.42;100376.44;5131595;27;20050;-65
2021/08/11 10:55:58;;;;;;;2.97;2.53;;;;;;;34.08;35.74;100373.94;5130328;27;20100;-64
2021/08/11 10:58:40;;;;;;;4.80;3.30;;;;;;;34.08;35.53;100368.38;5131439;27;20023;-65
2021/08/11 11:01:35;;;;;;;7.85;3.28;;;;;;;34.05;35.99;100372.56;5131332;27;20027;-64
2021/08/11 11:04:02;;;;;;;5.95;3.70;;;;;;;34.05;36.71;100368.97;5129968;27;20031;-64
2021/08/11 11:07:07;;;;;;;5.20;3.20;;;;;;;34.05;36.35;100368.97;5131529;27;20110;-65
2021/08/11 11:09:33;;;;;;;4.65;3.03;;;;;;;34.07;36.21;100367.53;5130899;27;20054;-64
2021/08/11 11:12:18;;;;;;;4.43;3.22;;;;;;;34.07;36.66;100366.69;5131670;27;20462;-64
2021/08/11 11:14:57;;;;;;;5.45;2.88;;;;;;;34.10;36.67;100366.97;5129654;27;20023;-65
2021/08/11 11:17:30;;;;;;;8.80;3.10;;;;;;;34.11;36.17;100362.25;5131197;27;20155;-65
2021/08/11 11:20:05;;;;;;;6.00;3.30;;;;;;;34.11;35.88;100363.06;5129718;27;20031;-64
2021/08/11 11:22:50;;;;;;;5.82;3.08;;;;;;;34.12;35.79;100363.91;5129840;27;20023;-65
2021/08/11 11:25:17;;;;;;;5.43;3.10;;;;;;;34.11;35.44;100359.47;5131059;27;20469;-64